Time;durP1;ratioP1;P1;durP2;ratioP2;P2;SDS_P1;SDS_P2;PMS_P1;PMS_P2;Temp;Humidity;BMP_temperature;BMP_pressure;BME280_temperature;BME280_humidity;BME280_pressure;Samples;Min_cycle;Max_cycle;Signal;HPM_P1;HPM_P2
2024/01/30 00:00:46;;;;;;;3.00;1.90;;;11.70;57.00;;;;;;4989654;28;20054;-77
2024/01/30 00:03:13;;;;;;;2.72;1.60;;;11.80;75.60;;;;;;4973167;28;20058;-78
2024/01/30 00:05:40;;;;;;;2.70;2.20;;;11.80;48.70;;;;;;4989826;28;20128;-77
2024/01/30 00:08:07;;;;;;;2.42;1.75;;;11.80;45.50;;;;;;4971767;28;20482;-77
2024/01/30 00:10:34;;;;;;;2.40;1.85;;;11.80;69.40;;;;;;4959556;28;20055;-78
2024/01/30 00:13:02;;;;;;;2.90;2.05;;;11.80;66.80;;;;;;4964712;28;20073;-79
2024/01/30 00:15:28;;;;;;;3.72;2.33;;;11.90;99.90;;;;;;4969131;28;20354;-77
2024/01/30 00:17:56;;;;;;;7.13;2.35;;;11.90;99.90;;;;;;4953934;28;20574;-78
2024/01/30 00:20:24;;;;;;;3.50;2.08;;;12.00;99.90;;;;;;4966089;28;20054;-78
2024/01/30 00:22:50;;;;;;;3.97;2.00;;;12.00;99.90;;;;;;4970849;28;20128;-77
2024/01/30 00:25:17;;;;;;;3.40;2.17;;;12.00;99.90;;;;;;4989185;28;20065;-77
2024/01/30 00:27:44;;;;;;;3.03;2.25;;;12.10;99.90;;;;;;4972779;28;20252;-77
2024/01/30 00:30:12;;;;;;;3.47;1.90;;;12.20;97.00;;;;;;4989507;28;20084;-77
2024/01/30 00:32:38;;;;;;;2.58;2.00;;;12.20;84.60;;;;;;4956309;28;20468;-77
2024/01/30 00:35:06;;;;;;;2.45;1.88;;;12.20;57.70;;;;;;4973129;28;20053;-78
2024/01/30 00:37:34;;;;;;;2.50;1.55;;;12.20;28.80;;;;;;4955529;28;20163;-77
2024/01/30 00:40:00;;;;;;;2.00;1.50;;;12.20;12.50;;;;;;4956603;28;20049;-77
2024/01/30 00:42:27;;;;;;;3.38;2.17;;;12.20;1.00;;;;;;4973228;28;20127;-77
2024/01/30 00:44:54;;;;;;;2.67;1.90;;;12.30;1.00;;;;;;4988510;28;20145;-77
2024/01/30 00:47:21;;;;;;;2.35;1.60;;;12.30;1.00;;;;;;4972476;28;20057;-77
2024/01/30 00:49:49;;;;;;;2.90;1.83;;;12.40;1.00;;;;;;4988816;28;20073;-77
2024/01/30 00:52:16;;;;;;;4.22;2.00;;;12.40;99.90;;;;;;4955315;28;20549;-77
2024/01/30 00:54:43;;;;;;;2.65;1.77;;;12.40;99.90;;;;;;4988455;28;20072;-77
2024/01/30 00:57:10;;;;;;;3.33;2.03;;;12.50;99.90;;;;;;4972858;28;20519;-77
2024/01/30 00:59:38;;;;;;;2.30;1.83;;;12.50;99.90;;;;;;4956563;28;20054;-77
2024/01/30 01:02:05;;;;;;;4.55;2.30;;;12.50;99.90;;;;;;4970045;28;20092;-77
2024/01/30 01:04:32;;;;;;;3.45;2.25;;;12.50;99.90;;;;;;4968882;28;20050;-78
2024/01/30 01:06:59;;;;;;;2.92;1.95;;;12.50;99.90;;;;;;4968169;28;20201;-78
2024/01/30 01:09:26;;;;;;;3.95;2.00;;;12.40;99.90;;;;;;4955626;28;20132;-78
2024/01/30 01:11:53;;;;;;;2.60;1.75;;;12.40;99.90;;;;;;4988536;28;20060;-78
2024/01/30 01:14:20;;;;;;;3.40;1.73;;;12.40;99.90;;;;;;4972043;28;20430;-77
2024/01/30 01:16:47;;;;;;;2.45;1.48;;;12.30;99.90;;;;;;5005406;28;20050;-77
2024/01/30 01:19:14;;;;;;;2.65;1.40;;;12.30;99.90;;;;;;4988540;28;20053;-77
2024/01/30 01:21:41;;;;;;;2.45;1.45;;;12.20;99.90;;;;;;4988204;28;20045;-78
2024/01/30 01:24:08;;;;;;;3.25;1.55;;;12.20;99.90;;;;;;4985934;28;20136;-79
2024/01/30 01:26:36;;;;;;;2.20;1.38;;;12.20;99.90;;;;;;4968620;28;20093;-77
2024/01/30 01:29:09;;;;;;;2.03;1.40;;;12.20;99.90;;;;;;4986786;28;20050;-77
2024/01/30 01:31:39;;;;;;;4.47;1.70;;;12.20;99.90;;;;;;4988679;28;20073;-78
2024/01/30 01:34:06;;;;;;;2.15;1.40;;;12.10;99.90;;;;;;4987200;28;20069;-77
2024/01/30 01:36:33;;;;;;;3.65;1.80;;;12.10;99.90;;;;;;4987846;28;20072;-77
2024/01/30 01:39:00;;;;;;;2.60;1.10;;;12.10;99.90;;;;;;5003808;28;20050;-78
2024/01/30 01:41:31;;;;;;;2.10;0.90;;;12.00;99.90;;;;;;5005184;28;20121;-76
2024/01/30 01:43:58;;;;;;;4.03;1.05;;;12.00;99.90;;;;;;4986907;28;20054;-77
2024/01/30 01:46:32;;;;;;;1.83;0.98;;;11.90;99.90;;;;;;4971879;28;20089;-77
2024/01/30 01:48:58;;;;;;;1.25;0.75;;;11.90;99.90;;;;;;4971695;28;20096;-77
2024/01/30 01:51:27;;;;;;;2.25;0.90;;;11.80;99.90;;;;;;4952469;28;20054;-78
2024/01/30 01:53:54;;;;;;;1.30;0.68;;;11.80;99.90;;;;;;4944935;28;20065;-77
2024/01/30 01:56:22;;;;;;;2.67;0.98;;;11.70;99.90;;;;;;4971493;28;20060;-78
2024/01/30 01:58:49;;;;;;;1.63;0.52;;;11.70;99.90;;;;;;4954865;28;20077;-78
2024/01/30 02:01:18;;;;;;;1.02;0.47;;;11.70;99.90;;;;;;4987319;28;20077;-77
2024/01/30 02:03:48;;;;;;;0.63;0.40;;;11.60;99.90;;;;;;4971557;28;20128;-77
2024/01/30 02:06:15;;;;;;;1.10;0.60;;;11.60;99.90;;;;;;4970634;28;20069;-77
2024/01/30 02:08:42;;;;;;;0.70;0.43;;;11.60;99.90;;;;;;4986186;28;20053;-77
2024/01/30 02:11:10;;;;;;;1.15;0.73;;;11.50;99.90;;;;;;4971137;28;20149;-77
2024/01/30 02:13:37;;;;;;;0.52;0.40;;;11.50;99.90;;;;;;4970952;28;20060;-77
2024/01/30 02:16:05;;;;;;;1.70;0.50;;;11.40;99.90;;;;;;4971296;28;20405;-77
2024/01/30 02:18:32;;;;;;;1.73;0.50;;;11.40;99.90;;;;;;4955115;28;20065;-77
2024/01/30 02:21:01;;;;;;;1.40;0.60;;;11.30;99.90;;;;;;4971184;28;20046;-77
2024/01/30 02:23:28;;;;;;;1.45;0.60;;;11.30;99.90;;;;;;4968556;28;20066;-77
2024/01/30 02:25:55;;;;;;;2.13;0.60;;;11.20;99.90;;;;;;4987073;28;20096;-77
2024/01/30 02:28:22;;;;;;;0.70;0.50;;;11.20;99.90;;;;;;4986632;28;20574;-77
2024/01/30 02:30:49;;;;;;;0.93;0.40;;;11.20;99.90;;;;;;4998457;28;20049;-77
2024/01/30 02:33:16;;;;;;;2.05;0.70;;;11.10;99.90;;;;;;4972089;28;20473;-78
2024/01/30 02:35:43;;;;;;;1.38;0.68;;;11.10;99.90;;;;;;5003819;28;20073;-77
2024/01/30 02:38:10;;;;;;;0.85;0.40;;;11.00;99.90;;;;;;5016910;28;20329;-78
2024/01/30 02:40:37;;;;;;;1.35;0.43;;;11.00;99.90;;;;;;5012487;28;20049;-77
2024/01/30 02:43:04;;;;;;;2.13;0.50;;;10.90;99.90;;;;;;4989832;28;20518;-77
2024/01/30 02:45:31;;;;;;;0.60;0.30;;;10.90;99.90;;;;;;4989353;28;20058;-77
2024/01/30 02:47:58;;;;;;;2.05;0.80;;;10.90;99.90;;;;;;5003863;28;20065;-77
2024/01/30 02:50:25;;;;;;;0.77;0.40;;;10.90;99.90;;;;;;4988828;28;20052;-77
2024/01/30 02:52:52;;;;;;;1.23;0.40;;;10.80;99.90;;;;;;4986598;28;20605;-77
2024/01/30 02:55:19;;;;;;;1.35;0.52;;;10.80;99.90;;;;;;4988469;28;20050;-78
2024/01/30 02:57:45;;;;;;;1.02;0.47;;;10.80;99.90;;;;;;4988608;28;20404;-77
2024/01/30 03:00:13;;;;;;;1.08;0.40;;;10.80;99.90;;;;;;5006559;28;20050;-77
2024/01/30 03:02:40;;;;;;;1.45;0.43;;;10.70;99.90;;;;;;4988603;28;20405;-77
2024/01/30 03:05:07;;;;;;;2.70;0.50;;;10.70;99.90;;;;;;4988128;28;20563;-78
2024/01/30 03:07:34;;;;;;;1.63;0.70;;;10.70;99.90;;;;;;4970209;28;20096;-77
2024/01/30 03:10:01;;;;;;;1.35;0.43;;;10.70;99.90;;;;;;4988815;28;20376;-77
2024/01/30 03:12:28;;;;;;;1.33;0.43;;;10.70;99.90;;;;;;4988081;28;20054;-77
2024/01/30 03:14:55;;;;;;;1.15;0.60;;;10.60;99.90;;;;;;5004061;28;20480;-77
2024/01/30 03:17:24;;;;;;;0.75;0.38;;;10.60;99.90;;;;;;4988387;28;20050;-77
2024/01/30 03:19:51;;;;;;;0.52;0.40;;;10.60;99.90;;;;;;4988840;28;20054;-77
2024/01/30 03:22:18;;;;;;;0.70;0.40;;;10.60;99.90;;;;;;4986694;28;20188;-77
2024/01/30 03:24:45;;;;;;;0.70;0.35;;;10.60;99.90;;;;;;4989530;28;20116;-77
2024/01/30 03:27:11;;;;;;;2.95;0.77;;;10.60;99.90;;;;;;4975952;28;20124;-77
2024/01/30 03:29:38;;;;;;;1.05;0.40;;;10.60;99.90;;;;;;5008520;28;20053;-77
2024/01/30 03:32:06;;;;;;;1.75;0.43;;;10.60;99.90;;;;;;4992125;28;20459;-78
2024/01/30 03:34:34;;;;;;;1.27;0.50;;;10.50;99.90;;;;;;5009666;28;20050;-78
2024/01/30 03:37:01;;;;;;;1.02;0.40;;;10.50;99.90;;;;;;4959090;28;20050;-77
2024/01/30 03:39:29;;;;;;;0.73;0.40;;;10.50;99.90;;;;;;4952561;28;20211;-77
2024/01/30 03:41:57;;;;;;;2.15;0.35;;;10.50;99.90;;;;;;4969252;28;20127;-79
2024/01/30 03:44:25;;;;;;;0.38;0.30;;;10.50;1.00;;;;;;4971577;28;20617;-77
2024/01/30 03:46:51;;;;;;;0.52;0.30;;;10.50;99.90;;;;;;4988717;28;20042;-77
2024/01/30 03:49:18;;;;;;;0.65;0.30;;;10.50;1.00;;;;;;4955639;28;20225;-79
2024/01/30 03:51:47;;;;;;;0.73;0.45;;;10.50;1.00;;;;;;4954803;28;20046;-77
2024/01/30 03:54:16;;;;;;;0.20;0.20;;;10.50;1.00;;;;;;4950242;28;20112;-77
2024/01/30 03:56:43;;;;;;;0.35;0.22;;;10.50;1.00;;;;;;4975128;28;20053;-77
2024/01/30 03:59:10;;;;;;;0.75;0.40;;;10.40;1.00;;;;;;4976252;28;20112;-77
2024/01/30 04:01:37;;;;;;;1.02;0.40;;;10.40;1.00;;;;;;4992286;28;20130;-77
2024/01/30 04:04:04;;;;;;;0.77;0.40;;;10.40;1.00;;;;;;4975206;28;20046;-77
2024/01/30 04:06:31;;;;;;;2.42;0.75;;;10.40;1.00;;;;;;4991963;28;20224;-77
2024/01/30 04:08:58;;;;;;;0.80;0.30;;;10.40;1.00;;;;;;4958227;28;20112;-77
2024/01/30 04:11:25;;;;;;;0.20;0.20;;;10.30;1.00;;;;;;4992102;28;20074;-77
2024/01/30 04:13:51;;;;;;;0.77;0.50;;;10.30;1.00;;;;;;4991263;28;20112;-78
2024/01/30 04:16:22;;;;;;;0.32;0.28;;;10.20;1.00;;;;;;4959571;28;20145;-77
2024/01/30 04:18:49;;;;;;;0.40;0.25;;;10.20;75.70;;;;;;4976029;28;20092;-78
2024/01/30 04:21:16;;;;;;;0.22;0.20;;;10.20;99.90;;;;;;4959911;28;20484;-77
2024/01/30 04:23:43;;;;;;;0.47;0.17;;;10.10;44.60;;;;;;4958552;28;20069;-77
2024/01/30 04:26:11;;;;;;;0.45;0.20;;;10.10;45.70;;;;;;4975714;28;20049;-77
2024/01/30 04:28:38;;;;;;;0.50;0.20;;;10.10;80.60;;;;;;4975937;28;20698;-77
2024/01/30 04:31:05;;;;;;;0.10;0.10;;;10.10;95.70;;;;;;4975063;28;20050;-77
2024/01/30 04:33:31;;;;;;;0.52;0.20;;;10.10;99.90;;;;;;4990387;28;20056;-77
2024/01/30 04:35:58;;;;;;;0.75;0.22;;;10.10;99.90;;;;;;4991181;28;20464;-77
2024/01/30 04:38:25;;;;;;;0.17;0.17;;;10.10;99.90;;;;;;4989515;28;20054;-77
2024/01/30 04:40:52;;;;;;;0.17;0.17;;;10.10;99.90;;;;;;4974974;28;20127;-77
2024/01/30 04:43:19;;;;;;;0.25;0.20;;;10.10;99.90;;;;;;4988871;28;20053;-77
2024/01/30 04:45:46;;;;;;;0.47;0.30;;;10.10;99.90;;;;;;4971713;28;20078;-77
2024/01/30 04:48:13;;;;;;;0.30;0.30;;;10.00;99.90;;;;;;4971102;28;20058;-77
2024/01/30 04:50:41;;;;;;;0.30;0.30;;;10.00;99.90;;;;;;4986982;28;20124;-77
2024/01/30 04:53:07;;;;;;;0.38;0.30;;;10.00;1.00;;;;;;4951298;28;20059;-77
2024/01/30 04:55:35;;;;;;;0.28;0.20;;;10.00;1.00;;;;;;4991077;28;20046;-78
2024/01/30 04:58:03;;;;;;;0.28;0.22;;;10.00;1.00;;;;;;4990791;28;20064;-77
2024/01/30 05:00:29;;;;;;;0.22;0.20;;;9.90;18.70;;;;;;4991132;28;20085;-78
2024/01/30 05:02:56;;;;;;;0.22;0.22;;;10.00;70.10;;;;;;4974278;28;20060;-77
2024/01/30 05:05:23;;;;;;;0.40;0.20;;;9.90;57.10;;;;;;4974570;28;20046;-78
2024/01/30 05:07:50;;;;;;;0.20;0.20;;;9.90;30.10;;;;;;4972732;28;20049;-78
2024/01/30 05:10:17;;;;;;;0.20;0.20;;;10.00;46.50;;;;;;4974779;28;20288;-77
2024/01/30 05:12:44;;;;;;;0.45;0.30;;;10.00;72.30;;;;;;4974021;28;20672;-77
2024/01/30 05:15:11;;;;;;;0.55;0.25;;;10.00;1.00;;;;;;4990515;28;20060;-77
2024/01/30 05:17:38;;;;;;;0.28;0.28;;;10.00;5.70;;;;;;4990551;28;20057;-77
2024/01/30 05:20:06;;;;;;;0.68;0.32;;;10.00;88.30;;;;;;4958727;28;20100;-78
2024/01/30 05:22:33;;;;;;;0.22;0.22;;;10.00;92.10;;;;;;4989046;28;20116;-78
2024/01/30 05:25:00;;;;;;;0.40;0.30;;;10.00;99.90;;;;;;4990842;28;20057;-77
2024/01/30 05:27:27;;;;;;;0.68;0.68;;;10.00;99.90;;;;;;4974358;28;20503;-77
2024/01/30 05:29:53;;;;;;;1.13;0.43;;;10.00;99.90;;;;;;4974787;28;20042;-77
2024/01/30 05:32:20;;;;;;;0.35;0.30;;;10.00;80.90;;;;;;4990050;28;20447;-78
2024/01/30 05:34:50;;;;;;;0.60;0.40;;;10.00;27.50;;;;;;4990484;28;20054;-79
2024/01/30 05:37:17;;;;;;;0.75;0.40;;;10.00;99.90;;;;;;4957448;28;20132;-78
2024/01/30 05:39:44;;;;;;;0.70;0.38;;;10.00;99.90;;;;;;4990362;28;20647;-77
2024/01/30 05:42:12;;;;;;;0.30;0.30;;;10.00;99.90;;;;;;4948442;28;20638;-80
2024/01/30 05:44:39;;;;;;;0.80;0.38;;;10.10;99.90;;;;;;4956778;28;20059;-76
2024/01/30 05:47:07;;;;;;;2.05;0.50;;;10.10;40.70;;;;;;4977949;28;20097;-77
2024/01/30 05:49:34;;;;;;;0.77;0.32;;;10.00;1.00;;;;;;4979189;28;20138;-79
2024/01/30 05:52:03;;;;;;;0.93;0.52;;;10.00;99.90;;;;;;4937316;28;20074;-77
2024/01/30 05:54:30;;;;;;;0.38;0.38;;;10.00;99.90;;;;;;4977927;28;20076;-78
2024/01/30 05:56:57;;;;;;;0.60;0.50;;;10.00;99.90;;;;;;4960596;28;20058;-77
2024/01/30 05:59:25;;;;;;;0.85;0.47;;;10.10;99.90;;;;;;4942650;28;20053;-78
2024/01/30 06:01:52;;;;;;;0.38;0.30;;;10.10;99.90;;;;;;4938424;28;20066;-78
2024/01/30 06:04:19;;;;;;;0.93;0.30;;;10.00;99.90;;;;;;4962137;28;20057;-78
2024/01/30 06:06:46;;;;;;;0.93;0.60;;;10.00;99.90;;;;;;4973705;28;20050;-78
2024/01/30 06:09:14;;;;;;;0.52;0.40;;;9.80;99.90;;;;;;4969863;28;20386;-78
2024/01/30 06:11:40;;;;;;;0.65;0.40;;;9.80;99.90;;;;;;4952154;28;20106;-79
2024/01/30 06:14:07;;;;;;;0.75;0.40;;;9.70;99.90;;;;;;4943317;28;20054;-78
2024/01/30 06:16:35;;;;;;;0.90;0.40;;;9.70;99.90;;;;;;4947050;28;20046;-78
2024/01/30 06:19:02;;;;;;;0.22;0.22;;;9.60;99.90;;;;;;4950006;28;20165;-78
2024/01/30 06:21:29;;;;;;;0.68;0.30;;;9.60;99.90;;;;;;4951307;28;20476;-78
2024/01/30 06:23:55;;;;;;;0.55;0.30;;;9.50;99.90;;;;;;4943318;28;20051;-78
2024/01/30 06:26:22;;;;;;;1.13;0.38;;;9.50;99.90;;;;;;4944002;28;20055;-78
2024/01/30 06:28:49;;;;;;;1.30;0.60;;;9.40;99.90;;;;;;4948735;28;20050;-78
2024/01/30 06:31:16;;;;;;;0.70;0.40;;;9.40;99.90;;;;;;4941366;28;20042;-77
2024/01/30 06:33:43;;;;;;;0.40;0.32;;;9.40;99.90;;;;;;4977455;28;20819;-77
2024/01/30 06:36:10;;;;;;;1.48;0.60;;;9.30;99.90;;;;;;4968937;28;20046;-78
2024/01/30 06:38:37;;;;;;;1.02;0.50;;;9.30;99.90;;;;;;4979641;28;20062;-78
2024/01/30 06:41:05;;;;;;;0.95;0.60;;;9.30;99.90;;;;;;4996341;28;20456;-77
2024/01/30 06:43:32;;;;;;;0.80;0.60;;;9.20;99.90;;;;;;4997973;28;20054;-77
2024/01/30 06:45:59;;;;;;;1.42;0.68;;;9.10;99.90;;;;;;5000144;28;20057;-79
2024/01/30 06:48:26;;;;;;;2.65;0.95;;;9.10;99.90;;;;;;4999559;28;20057;-79
2024/01/30 06:50:53;;;;;;;1.23;0.90;;;9.00;99.90;;;;;;4982995;28;20052;-79
2024/01/30 06:53:20;;;;;;;1.48;1.38;;;8.90;99.90;;;;;;4958587;28;20082;-79
2024/01/30 06:55:48;;;;;;;1.65;0.90;;;8.90;99.90;;;;;;4962424;28;20703;-79
2024/01/30 06:58:15;;;;;;;1.15;0.82;;;8.90;99.90;;;;;;4964320;28;20119;-79
2024/01/30 07:00:42;;;;;;;1.45;0.80;;;8.80;99.90;;;;;;4998113;28;20072;-79
2024/01/30 07:03:09;;;;;;;1.55;1.02;;;8.90;99.90;;;;;;4995100;28;20104;-79
2024/01/30 07:05:35;;;;;;;1.50;1.00;;;8.90;99.90;;;;;;4964027;28;20137;-78
2024/01/30 07:08:03;;;;;;;1.60;0.88;;;8.80;99.90;;;;;;4997523;28;20050;-77
2024/01/30 07:10:31;;;;;;;1.50;0.90;;;8.80;99.90;;;;;;4976543;28;20427;-77
2024/01/30 07:12:58;;;;;;;1.33;0.82;;;8.80;99.90;;;;;;4969158;28;20076;-76
2024/01/30 07:15:25;;;;;;;1.65;1.00;;;8.90;99.90;;;;;;4966789;28;20096;-78
2024/01/30 07:17:52;;;;;;;1.52;1.02;;;8.90;99.90;;;;;;4987254;28;20047;-79
2024/01/30 07:20:20;;;;;;;2.10;1.10;;;8.80;99.90;;;;;;4984954;28;20463;-79
2024/01/30 07:22:47;;;;;;;2.08;1.10;;;8.80;99.90;;;;;;4947653;28;20077;-79
2024/01/30 07:25:15;;;;;;;1.52;0.90;;;8.80;99.90;;;;;;4941758;28;20042;-80
2024/01/30 07:27:42;;;;;;;1.92;1.15;;;8.80;99.90;;;;;;4969839;28;20046;-81
2024/01/30 07:30:10;;;;;;;1.27;1.02;;;8.80;99.90;;;;;;4969181;28;20054;-81
2024/01/30 07:32:38;;;;;;;2.10;1.30;;;8.80;99.90;;;;;;5003336;28;20046;-79
2024/01/30 07:35:05;;;;;;;1.90;1.20;;;8.70;99.90;;;;;;4963762;28;20479;-79
2024/01/30 07:37:35;;;;;;;1.52;1.23;;;8.70;99.90;;;;;;4979923;28;20069;-79
2024/01/30 07:40:03;;;;;;;1.60;1.40;;;8.70;99.90;;;;;;4962836;28;20058;-79
2024/01/30 07:42:30;;;;;;;1.38;0.95;;;8.70;99.90;;;;;;4948738;28;20064;-78
2024/01/30 07:44:57;;;;;;;1.65;1.10;;;8.70;99.90;;;;;;4957996;28;20046;-79
2024/01/30 07:47:24;;;;;;;3.33;1.35;;;8.70;99.90;;;;;;4947047;28;20104;-79
2024/01/30 07:49:52;;;;;;;2.03;1.15;;;8.70;99.90;;;;;;4921674;28;20047;-78
2024/01/30 07:52:19;;;;;;;1.45;1.05;;;8.70;99.90;;;;;;4964303;28;20054;-79
2024/01/30 07:54:46;;;;;;;1.35;1.20;;;8.70;99.90;;;;;;4959557;28;20058;-79
2024/01/30 07:57:13;;;;;;;1.60;1.30;;;8.70;99.90;;;;;;4946550;28;20046;-79
2024/01/30 07:59:43;;;;;;;2.78;1.30;;;8.70;99.90;;;;;;4951694;28;20054;-78
2024/01/30 08:02:13;;;;;;;1.27;1.17;;;8.70;99.90;;;;;;4963837;28;20120;-79
2024/01/30 08:04:43;;;;;;;1.95;1.10;;;8.70;99.90;;;;;;4946886;28;20146;-78
2024/01/30 08:07:10;;;;;;;1.42;0.80;;;8.70;99.90;;;;;;4936434;28;20054;-78
2024/01/30 08:09:37;;;;;;;1.92;1.17;;;8.70;99.90;;;;;;4949871;28;20109;-79
2024/01/30 08:12:04;;;;;;;1.48;1.00;;;8.70;99.90;;;;;;4950299;28;20476;-78
2024/01/30 08:14:32;;;;;;;1.60;1.00;;;8.70;99.90;;;;;;4952311;28;20126;-78
2024/01/30 08:16:59;;;;;;;2.28;1.27;;;8.70;99.90;;;;;;4968500;28;20124;-79
2024/01/30 08:19:26;;;;;;;1.80;1.05;;;8.70;99.90;;;;;;4964713;28;20157;-79
2024/01/30 08:21:53;;;;;;;1.23;0.80;;;8.70;99.90;;;;;;4960532;28;20047;-78
2024/01/30 08:24:20;;;;;;;0.93;0.70;;;8.80;99.90;;;;;;4972517;28;20089;-78
2024/01/30 08:26:47;;;;;;;1.08;0.68;;;8.80;99.90;;;;;;4939014;28;20140;-79
2024/01/30 08:29:14;;;;;;;1.20;1.00;;;8.80;99.90;;;;;;4961951;28;20084;-79
2024/01/30 08:31:41;;;;;;;1.30;0.98;;;8.80;99.90;;;;;;4947810;28;20081;-78
2024/01/30 08:34:08;;;;;;;2.35;1.40;;;8.80;99.90;;;;;;4967470;28;20062;-79
2024/01/30 08:36:35;;;;;;;0.98;0.80;;;8.70;99.90;;;;;;4954810;28;20059;-78
2024/01/30 08:39:02;;;;;;;0.77;0.63;;;8.80;99.90;;;;;;4959006;28;20490;-78
2024/01/30 08:41:32;;;;;;;0.60;0.50;;;8.80;99.90;;;;;;4943973;28;20056;-78
2024/01/30 08:43:59;;;;;;;0.68;0.60;;;8.90;99.90;;;;;;4985558;28;20104;-79
2024/01/30 08:46:26;;;;;;;1.38;0.80;;;8.90;99.90;;;;;;4940942;28;20053;-78
2024/01/30 08:48:54;;;;;;;0.93;0.57;;;8.90;99.90;;;;;;4966415;28;20145;-78
2024/01/30 08:51:21;;;;;;;1.10;0.80;;;8.80;99.90;;;;;;4964722;28;20076;-78
2024/01/30 08:53:48;;;;;;;1.10;0.70;;;8.90;99.90;;;;;;4978125;28;20116;-79
2024/01/30 08:56:16;;;;;;;0.40;0.35;;;8.80;99.90;;;;;;4962031;28;20050;-78
2024/01/30 08:58:43;;;;;;;0.32;0.30;;;8.80;99.90;;;;;;4957765;28;20523;-78
2024/01/30 09:01:10;;;;;;;0.30;0.30;;;8.90;99.90;;;;;;4955460;28;20128;-79
2024/01/30 09:03:39;;;;;;;0.40;0.35;;;8.90;99.90;;;;;;4959447;28;20510;-78
2024/01/30 09:06:12;;;;;;;0.45;0.35;;;8.90;99.90;;;;;;4946853;28;20050;-73
2024/01/30 09:08:39;;;;;;;0.45;0.40;;;9.00;99.90;;;;;;4940598;28;20053;-73
2024/01/30 09:11:13;;;;;;;1.20;0.50;;;9.00;99.90;;;;;;4950316;28;20538;-73
2024/01/30 09:13:40;;;;;;;0.20;0.20;;;9.00;99.90;;;;;;4965858;28;20428;-74
2024/01/30 09:16:07;;;;;;;0.43;0.40;;;9.00;99.90;;;;;;4960750;28;20050;-73
2024/01/30 09:18:34;;;;;;;0.20;0.20;;;9.00;99.90;;;;;;4952020;28;20577;-73
2024/01/30 09:21:01;;;;;;;0.22;0.20;;;9.10;99.90;;;;;;4964628;28;20502;-73
2024/01/30 09:23:28;;;;;;;0.57;0.30;;;9.10;99.90;;;;;;4936782;28;20129;-73
2024/01/30 09:25:55;;;;;;;0.30;0.30;;;9.10;99.90;;;;;;4959786;28;20599;-73
2024/01/30 09:28:22;;;;;;;0.55;0.35;;;9.00;99.90;;;;;;4945831;28;20682;-73
2024/01/30 09:30:52;;;;;;;0.20;0.20;;;9.10;99.90;;;;;;4978319;28;20055;-73
2024/01/30 09:33:19;;;;;;;0.30;0.30;;;9.00;99.90;;;;;;4983453;28;20053;-73
2024/01/30 09:35:47;;;;;;;0.40;0.40;;;9.00;99.90;;;;;;4975597;28;20054;-73
2024/01/30 09:38:14;;;;;;;0.77;0.57;;;9.00;99.90;;;;;;4947415;28;20751;-74
2024/01/30 09:40:42;;;;;;;0.30;0.30;;;9.00;96.10;;;;;;4949112;28;20072;-73
2024/01/30 09:43:09;;;;;;;0.40;0.40;;;9.00;98.40;;;;;;4964708;28;20046;-74
2024/01/30 09:45:36;;;;;;;0.40;0.40;;;9.00;98.60;;;;;;4974786;28;20064;-74
2024/01/30 09:48:03;;;;;;;0.20;0.20;;;9.00;96.70;;;;;;4973077;28;20056;-74
2024/01/30 09:50:30;;;;;;;0.32;0.32;;;9.10;96.10;;;;;;4993761;28;20061;-74
2024/01/30 09:52:59;;;;;;;0.30;0.30;;;9.10;99.90;;;;;;4972643;28;20074;-74
2024/01/30 09:55:26;;;;;;;0.75;0.50;;;9.10;83.40;;;;;;4980693;28;20145;-74
2024/01/30 09:57:53;;;;;;;0.30;0.30;;;9.10;70.80;;;;;;4945397;28;20047;-75
2024/01/30 10:00:20;;;;;;;0.40;0.40;;;9.20;73.00;;;;;;4979315;28;20054;-74
2024/01/30 10:02:47;;;;;;;0.30;0.30;;;9.20;77.90;;;;;;4945198;28;20060;-74
2024/01/30 10:05:15;;;;;;;0.22;0.22;;;9.20;76.80;;;;;;4993340;28;20467;-74
2024/01/30 10:07:53;;;;;;;0.32;0.32;;;9.20;75.60;;;;;;4965706;28;20152;-74
2024/01/30 10:10:23;;;;;;;0.65;0.40;;;9.30;74.80;;;;;;4967681;28;20049;-73
2024/01/30 10:12:50;;;;;;;0.45;0.30;;;9.40;82.20;;;;;;4969615;28;20042;-74
2024/01/30 10:15:18;;;;;;;0.60;0.50;;;9.50;68.60;;;;;;4953994;28;20056;-73
2024/01/30 10:17:45;;;;;;;1.10;0.40;;;9.40;72.90;;;;;;4985075;28;20053;-74
2024/01/30 10:20:13;;;;;;;0.40;0.40;;;9.40;78.60;;;;;;4989655;28;20066;-74
2024/01/30 10:22:43;;;;;;;0.35;0.32;;;9.40;87.40;;;;;;4984234;28;20558;-74
2024/01/30 10:25:11;;;;;;;0.38;0.30;;;9.40;67.50;;;;;;4967571;28;20042;-73
2024/01/30 10:27:39;;;;;;;0.65;0.50;;;9.40;73.00;;;;;;4967281;28;20061;-74
2024/01/30 10:30:07;;;;;;;0.63;0.30;;;9.40;64.00;;;;;;4987587;28;20050;-74
2024/01/30 10:32:34;;;;;;;1.55;0.20;;;9.40;65.40;;;;;;4966821;28;20054;-74
2024/01/30 10:35:01;;;;;;;0.70;0.50;;;9.40;77.60;;;;;;4953310;28;20144;-74
2024/01/30 10:37:31;;;;;;;0.63;0.35;;;9.50;57.80;;;;;;4984707;28;20045;-73
2024/01/30 10:39:58;;;;;;;0.82;0.50;;;9.50;91.00;;;;;;4971123;28;20522;-73
2024/01/30 10:42:26;;;;;;;0.50;0.40;;;9.50;90.10;;;;;;4970301;28;20132;-74
2024/01/30 10:45:09;;;;;;;0.98;0.40;;;9.50;87.50;;;;;;4986679;28;20080;-74
2024/01/30 10:47:37;;;;;;;0.43;0.40;;;9.50;86.00;;;;;;4970294;28;20045;-74
2024/01/30 10:50:05;;;;;;;0.30;0.30;;;9.60;56.00;;;;;;4970373;28;20046;-74
2024/01/30 10:52:32;;;;;;;0.30;0.30;;;9.60;59.90;;;;;;4984389;28;20119;-74
2024/01/30 10:54:59;;;;;;;0.47;0.30;;;9.60;59.60;;;;;;4983565;28;20129;-74
2024/01/30 10:57:26;;;;;;;0.30;0.30;;;9.60;62.30;;;;;;4966886;28;20053;-74
2024/01/30 10:59:56;;;;;;;0.32;0.30;;;9.70;59.30;;;;;;4967275;28;20053;-73
2024/01/30 11:02:23;;;;;;;0.40;0.40;;;9.60;76.20;;;;;;4967047;28;20447;-74
2024/01/30 11:04:55;;;;;;;0.60;0.40;;;9.60;47.50;;;;;;4982513;28;20054;-74
2024/01/30 11:07:27;;;;;;;0.50;0.30;;;9.50;62.60;;;;;;4965691;28;20046;-74
2024/01/30 11:10:03;;;;;;;0.28;0.25;;;9.50;55.20;;;;;;4951604;28;20061;-74
2024/01/30 11:12:33;;;;;;;0.30;0.30;;;9.50;48.80;;;;;;4983990;28;20052;-73
2024/01/30 11:15:04;;;;;;;0.20;0.20;;;9.40;62.60;;;;;;4951242;28;20061;-74
2024/01/30 11:17:49;;;;;;;0.20;0.20;;;9.50;69.50;;;;;;5003121;28;20516;-73
2024/01/30 11:20:20;;;;;;;0.20;0.20;;;9.50;63.80;;;;;;5001249;28;20163;-74
2024/01/30 11:22:47;;;;;;;0.30;0.30;;;9.50;40.80;;;;;;4998637;28;20062;-73
2024/01/30 11:25:15;;;;;;;0.40;0.30;;;9.50;56.20;;;;;;5000335;28;20046;-73
2024/01/30 11:27:43;;;;;;;0.40;0.30;;;9.40;42.70;;;;;;4950645;28;20793;-73
2024/01/30 11:30:10;;;;;;;0.52;0.40;;;9.40;55.50;;;;;;4965067;28;20456;-73
2024/01/30 11:32:37;;;;;;;0.88;0.52;;;9.40;11.50;;;;;;4949621;28;20054;-73
2024/01/30 11:35:06;;;;;;;0.85;0.82;;;9.40;4.80;;;;;;4999138;28;20042;-73
2024/01/30 11:37:33;;;;;;;0.32;0.30;;;9.40;4.40;;;;;;4995070;28;20054;-73
2024/01/30 11:40:00;;;;;;;1.00;0.38;;;9.40;8.50;;;;;;4968173;28;20139;-73
2024/01/30 11:42:28;;;;;;;0.32;0.32;;;9.40;1.00;;;;;;4999856;28;20149;-73
2024/01/30 11:44:55;;;;;;;0.28;0.28;;;9.30;2.90;;;;;;5016403;28;20508;-73
2024/01/30 11:47:22;;;;;;;0.25;0.20;;;9.30;5.90;;;;;;4988530;28;20042;-73
2024/01/30 11:49:49;;;;;;;0.45;0.30;;;9.30;3.20;;;;;;4972138;28;20141;-73
2024/01/30 11:52:16;;;;;;;0.85;0.52;;;9.30;1.00;;;;;;5003488;28;20069;-73
2024/01/30 11:54:43;;;;;;;0.55;0.45;;;9.30;1.00;;;;;;4983694;28;20053;-74
2024/01/30 11:57:10;;;;;;;0.50;0.50;;;9.30;1.00;;;;;;5005549;28;20076;-73
2024/01/30 11:59:37;;;;;;;0.85;0.55;;;9.40;43.20;;;;;;5020479;28;20057;-73
2024/01/30 12:02:04;;;;;;;1.05;0.60;;;9.30;44.20;;;;;;4987265;28;20046;-74
2024/01/30 12:04:31;;;;;;;0.30;0.30;;;9.30;14.30;;;;;;4999089;28;20132;-73
2024/01/30 12:06:58;;;;;;;0.30;0.30;;;9.30;12.10;;;;;;4968559;28;20140;-73
2024/01/30 12:09:29;;;;;;;0.55;0.30;;;9.30;11.70;;;;;;5002360;28;20141;-73
2024/01/30 12:11:56;;;;;;;0.30;0.30;;;9.20;7.80;;;;;;5004411;28;20068;-73
2024/01/30 12:14:25;;;;;;;0.80;0.30;;;9.20;6.70;;;;;;4987909;28;20097;-73
2024/01/30 12:16:51;;;;;;;0.32;0.32;;;9.20;5.80;;;;;;4989387;28;20058;-74
2024/01/30 12:19:23;;;;;;;0.47;0.45;;;9.10;4.40;;;;;;4988699;28;20243;-74
2024/01/30 12:21:59;;;;;;;0.80;0.50;;;9.10;1.30;;;;;;5005002;28;20065;-73
2024/01/30 12:24:27;;;;;;;0.35;0.30;;;9.10;6.90;;;;;;5001516;28;20049;-73
2024/01/30 12:26:58;;;;;;;0.52;0.38;;;9.10;9.80;;;;;;4981635;28;20512;-73
2024/01/30 12:29:25;;;;;;;0.55;0.40;;;9.10;1.00;;;;;;4977911;28;20046;-73
2024/01/30 12:31:57;;;;;;;0.57;0.40;;;9.10;1.00;;;;;;4987542;28;20058;-73
2024/01/30 12:34:25;;;;;;;0.38;0.20;;;9.20;1.00;;;;;;4964383;28;20468;-73
2024/01/30 12:36:52;;;;;;;0.30;0.30;;;9.20;1.00;;;;;;4962315;28;20043;-73
2024/01/30 12:39:19;;;;;;;0.10;0.10;;;9.20;1.00;;;;;;4960984;28;20460;-73
2024/01/30 12:41:46;;;;;;;0.57;0.28;;;9.20;7.40;;;;;;4943336;28;20054;-73
2024/01/30 12:44:13;;;;;;;0.20;0.20;;;9.10;7.40;;;;;;4968600;28;20046;-73
2024/01/30 12:46:40;;;;;;;0.60;0.30;;;9.10;10.60;;;;;;4978522;28;20089;-73
2024/01/30 12:49:07;;;;;;;0.30;0.30;;;9.10;7.30;;;;;;4951993;28;20055;-73
2024/01/30 12:51:38;;;;;;;0.20;0.20;;;9.10;6.70;;;;;;4968068;28;20137;-74
2024/01/30 12:54:06;;;;;;;0.40;0.40;;;9.10;17.60;;;;;;4950383;28;20047;-73